sensor_id;sensor_type;location;lat;lon;timestamp;P1;durP1;ratioP1;P2;durP2;ratioP2
72797;SDS011;61084;55.816;37.036;2023-03-18T00:02:17;3.83;;;1.65;;
72797;SDS011;61084;55.816;37.036;2023-03-18T00:04:43;5.15;;;1.98;;
72797;SDS011;61084;55.816;37.036;2023-03-18T00:07:12;7.18;;;1.65;;
72797;SDS011;61084;55.816;37.036;2023-03-18T00:09:38;5.30;;;2.15;;
72797;SDS011;61084;55.816;37.036;2023-03-18T00:12:04;5.22;;;1.60;;
72797;SDS011;61084;55.816;37.036;2023-03-18T00:14:31;4.03;;;1.63;;
72797;SDS011;61084;55.816;37.036;2023-03-18T00:16:59;4.95;;;1.75;;
72797;SDS011;61084;55.816;37.036;2023-03-18T00:19:31;3.92;;;1.52;;
72797;SDS011;61084;55.816;37.036;2023-03-18T00:22:00;6.45;;;1.92;;
72797;SDS011;61084;55.816;37.036;2023-03-18T00:24:26;5.63;;;1.67;;
72797;SDS011;61084;55.816;37.036;2023-03-18T00:27:10;4.75;;;1.63;;
72797;SDS011;61084;55.816;37.036;2023-03-18T00:29:36;8.68;;;1.42;;
72797;SDS011;61084;55.816;37.036;2023-03-18T00:32:02;6.03;;;2.45;;
72797;SDS011;61084;55.816;37.036;2023-03-18T00:34:39;3.60;;;1.48;;
72797;SDS011;61084;55.816;37.036;2023-03-18T00:37:06;4.15;;;1.67;;
72797;SDS011;61084;55.816;37.036;2023-03-18T00:39:32;4.57;;;1.38;;
72797;SDS011;61084;55.816;37.036;2023-03-18T00:41:59;3.78;;;1.42;;
72797;SDS011;61084;55.816;37.036;2023-03-18T00:44:32;3.85;;;1.55;;
72797;SDS011;61084;55.816;37.036;2023-03-18T00:46:58;4.63;;;1.50;;
72797;SDS011;61084;55.816;37.036;2023-03-18T00:49:25;3.28;;;1.60;;
72797;SDS011;61084;55.816;37.036;2023-03-18T00:51:54;3.50;;;1.52;;
72797;SDS011;61084;55.816;37.036;2023-03-18T00:54:20;7.15;;;1.77;;
72797;SDS011;61084;55.816;37.036;2023-03-18T00:57:19;3.45;;;1.55;;
72797;SDS011;61084;55.816;37.036;2023-03-18T00:59:47;3.80;;;1.33;;
72797;SDS011;61084;55.816;37.036;2023-03-18T01:02:19;4.13;;;1.50;;
72797;SDS011;61084;55.816;37.036;2023-03-18T01:04:46;6.68;;;1.30;;
72797;SDS011;61084;55.816;37.036;2023-03-18T01:07:21;4.60;;;1.77;;
72797;SDS011;61084;55.816;37.036;2023-03-18T01:09:55;3.25;;;1.42;;
72797;SDS011;61084;55.816;37.036;2023-03-18T01:12:24;6.50;;;1.60;;
72797;SDS011;61084;55.816;37.036;2023-03-18T01:14:57;4.80;;;1.40;;
72797;SDS011;61084;55.816;37.036;2023-03-18T01:17:30;5.22;;;1.50;;
72797;SDS011;61084;55.816;37.036;2023-03-18T01:19:59;5.43;;;1.25;;
72797;SDS011;61084;55.816;37.036;2023-03-18T01:22:29;4.43;;;1.60;;
72797;SDS011;61084;55.816;37.036;2023-03-18T01:24:55;5.97;;;1.83;;
72797;SDS011;61084;55.816;37.036;2023-03-18T01:27:28;5.30;;;1.65;;
72797;SDS011;61084;55.816;37.036;2023-03-18T01:29:56;4.45;;;1.50;;
72797;SDS011;61084;55.816;37.036;2023-03-18T01:32:22;3.15;;;1.20;;
72797;SDS011;61084;55.816;37.036;2023-03-18T01:34:48;4.47;;;1.35;;
72797;SDS011;61084;55.816;37.036;2023-03-18T01:37:14;3.28;;;1.50;;
72797;SDS011;61084;55.816;37.036;2023-03-18T01:39:44;3.70;;;1.42;;
72797;SDS011;61084;55.816;37.036;2023-03-18T01:42:17;4.47;;;1.70;;
72797;SDS011;61084;55.816;37.036;2023-03-18T01:44:43;4.45;;;1.30;;
72797;SDS011;61084;55.816;37.036;2023-03-18T01:47:11;4.80;;;1.60;;
72797;SDS011;61084;55.816;37.036;2023-03-18T01:49:48;5.82;;;1.25;;
72797;SDS011;61084;55.816;37.036;2023-03-18T01:52:22;5.88;;;1.35;;
72797;SDS011;61084;55.816;37.036;2023-03-18T01:54:53;5.75;;;1.30;;
72797;SDS011;61084;55.816;37.036;2023-03-18T01:57:28;3.15;;;0.98;;
72797;SDS011;61084;55.816;37.036;2023-03-18T01:59:59;3.70;;;1.50;;
72797;SDS011;61084;55.816;37.036;2023-03-18T02:02:29;2.97;;;1.48;;
72797;SDS011;61084;55.816;37.036;2023-03-18T02:04:57;2.45;;;1.13;;
72797;SDS011;61084;55.816;37.036;2023-03-18T02:07:31;3.05;;;1.40;;
72797;SDS011;61084;55.816;37.036;2023-03-18T02:10:05;5.68;;;1.50;;
72797;SDS011;61084;55.816;37.036;2023-03-18T02:12:41;5.95;;;1.50;;
72797;SDS011;61084;55.816;37.036;2023-03-18T02:15:13;5.50;;;1.50;;
72797;SDS011;61084;55.816;37.036;2023-03-18T02:17:44;8.15;;;1.77;;
72797;SDS011;61084;55.816;37.036;2023-03-18T02:23:05;4.45;;;1.73;;
72797;SDS011;61084;55.816;37.036;2023-03-18T02:25:51;6.18;;;1.50;;
72797;SDS011;61084;55.816;37.036;2023-03-18T02:28:24;5.03;;;1.60;;
72797;SDS011;61084;55.816;37.036;2023-03-18T02:30:59;9.65;;;1.92;;
72797;SDS011;61084;55.816;37.036;2023-03-18T02:33:30;8.85;;;2.00;;
72797;SDS011;61084;55.816;37.036;2023-03-18T02:36:02;6.82;;;1.98;;
72797;SDS011;61084;55.816;37.036;2023-03-18T02:38:34;6.68;;;2.00;;
72797;SDS011;61084;55.816;37.036;2023-03-18T02:41:11;4.85;;;2.08;;
72797;SDS011;61084;55.816;37.036;2023-03-18T02:46:17;3.80;;;1.52;;
72797;SDS011;61084;55.816;37.036;2023-03-18T02:49:07;3.15;;;1.45;;
72797;SDS011;61084;55.816;37.036;2023-03-18T02:51:34;5.40;;;1.52;;
72797;SDS011;61084;55.816;37.036;2023-03-18T02:54:04;4.18;;;1.52;;
72797;SDS011;61084;55.816;37.036;2023-03-18T02:56:30;4.40;;;1.73;;
72797;SDS011;61084;55.816;37.036;2023-03-18T02:58:56;5.90;;;1.50;;
72797;SDS011;61084;55.816;37.036;2023-03-18T03:01:22;4.28;;;1.33;;
72797;SDS011;61084;55.816;37.036;2023-03-18T03:03:56;2.88;;;1.38;;
72797;SDS011;61084;55.816;37.036;2023-03-18T03:06:26;4.07;;;1.60;;
72797;SDS011;61084;55.816;37.036;2023-03-18T03:08:52;5.30;;;1.52;;
72797;SDS011;61084;55.816;37.036;2023-03-18T03:11:18;5.25;;;1.67;;
72797;SDS011;61084;55.816;37.036;2023-03-18T03:13:59;5.05;;;1.80;;
72797;SDS011;61084;55.816;37.036;2023-03-18T03:16:39;6.80;;;1.65;;
72797;SDS011;61084;55.816;37.036;2023-03-18T03:19:16;3.03;;;1.55;;
72797;SDS011;61084;55.816;37.036;2023-03-18T03:21:48;3.72;;;1.65;;
72797;SDS011;61084;55.816;37.036;2023-03-18T03:24:19;7.18;;;1.90;;
72797;SDS011;61084;55.816;37.036;2023-03-18T03:26:46;4.22;;;1.85;;
72797;SDS011;61084;55.816;37.036;2023-03-18T03:29:17;5.32;;;1.95;;
72797;SDS011;61084;55.816;37.036;2023-03-18T03:31:50;5.63;;;2.00;;
72797;SDS011;61084;55.816;37.036;2023-03-18T03:34:19;5.05;;;1.92;;
72797;SDS011;61084;55.816;37.036;2023-03-18T03:36:58;4.07;;;1.55;;
72797;SDS011;61084;55.816;37.036;2023-03-18T03:39:25;6.75;;;2.00;;
72797;SDS011;61084;55.816;37.036;2023-03-18T03:41:51;3.63;;;1.42;;
72797;SDS011;61084;55.816;37.036;2023-03-18T03:44:20;7.50;;;2.10;;
72797;SDS011;61084;55.816;37.036;2023-03-18T03:46:48;6.50;;;2.03;;
72797;SDS011;61084;55.816;37.036;2023-03-18T03:49:14;4.93;;;1.77;;
72797;SDS011;61084;55.816;37.036;2023-03-18T03:51:40;4.13;;;1.83;;
72797;SDS011;61084;55.816;37.036;2023-03-18T03:54:06;9.45;;;1.83;;
72797;SDS011;61084;55.816;37.036;2023-03-18T03:56:32;5.38;;;1.60;;
72797;SDS011;61084;55.816;37.036;2023-03-18T03:58:58;6.43;;;2.00;;
72797;SDS011;61084;55.816;37.036;2023-03-18T04:01:44;5.32;;;1.58;;
72797;SDS011;61084;55.816;37.036;2023-03-18T04:04:10;4.88;;;1.83;;
72797;SDS011;61084;55.816;37.036;2023-03-18T04:06:37;4.57;;;1.80;;
72797;SDS011;61084;55.816;37.036;2023-03-18T04:09:03;5.60;;;1.92;;
72797;SDS011;61084;55.816;37.036;2023-03-18T04:11:30;4.57;;;1.70;;
72797;SDS011;61084;55.816;37.036;2023-03-18T04:13:56;3.90;;;1.70;;
72797;SDS011;61084;55.816;37.036;2023-03-18T04:16:22;5.07;;;2.05;;
72797;SDS011;61084;55.816;37.036;2023-03-18T04:18:48;5.63;;;2.03;;
72797;SDS011;61084;55.816;37.036;2023-03-18T04:21:25;5.90;;;1.80;;
72797;SDS011;61084;55.816;37.036;2023-03-18T04:23:54;5.13;;;1.60;;
72797;SDS011;61084;55.816;37.036;2023-03-18T04:26:20;5.53;;;1.48;;
72797;SDS011;61084;55.816;37.036;2023-03-18T04:28:46;6.25;;;1.92;;
72797;SDS011;61084;55.816;37.036;2023-03-18T04:33:41;7.25;;;1.98;;
72797;SDS011;61084;55.816;37.036;2023-03-18T04:36:08;4.30;;;1.50;;
72797;SDS011;61084;55.816;37.036;2023-03-18T04:38:39;4.05;;;1.55;;
72797;SDS011;61084;55.816;37.036;2023-03-18T04:41:10;3.13;;;1.27;;
72797;SDS011;61084;55.816;37.036;2023-03-18T04:43:40;3.90;;;1.52;;
72797;SDS011;61084;55.816;37.036;2023-03-18T04:46:08;4.85;;;1.63;;
72797;SDS011;61084;55.816;37.036;2023-03-18T04:48:38;7.38;;;2.00;;
72797;SDS011;61084;55.816;37.036;2023-03-18T04:51:06;6.60;;;1.80;;
72797;SDS011;61084;55.816;37.036;2023-03-18T04:53:37;5.75;;;1.73;;
72797;SDS011;61084;55.816;37.036;2023-03-18T04:56:14;5.07;;;1.88;;
72797;SDS011;61084;55.816;37.036;2023-03-18T04:59:02;5.97;;;2.08;;
72797;SDS011;61084;55.816;37.036;2023-03-18T05:01:35;5.00;;;1.95;;
72797;SDS011;61084;55.816;37.036;2023-03-18T05:04:03;6.35;;;2.13;;
72797;SDS011;61084;55.816;37.036;2023-03-18T05:06:44;3.92;;;1.58;;
72797;SDS011;61084;55.816;37.036;2023-03-18T05:09:20;4.88;;;1.60;;
72797;SDS011;61084;55.816;37.036;2023-03-18T05:11:46;4.45;;;2.10;;
72797;SDS011;61084;55.816;37.036;2023-03-18T05:14:20;7.55;;;2.08;;
72797;SDS011;61084;55.816;37.036;2023-03-18T05:16:49;6.00;;;1.92;;
72797;SDS011;61084;55.816;37.036;2023-03-18T05:19:22;4.07;;;1.90;;
72797;SDS011;61084;55.816;37.036;2023-03-18T05:22:10;4.20;;;2.25;;
72797;SDS011;61084;55.816;37.036;2023-03-18T05:24:48;6.82;;;1.95;;
72797;SDS011;61084;55.816;37.036;2023-03-18T05:27:22;7.32;;;1.77;;
72797;SDS011;61084;55.816;37.036;2023-03-18T05:30:08;3.75;;;1.92;;
72797;SDS011;61084;55.816;37.036;2023-03-18T05:33:05;4.60;;;1.88;;
72797;SDS011;61084;55.816;37.036;2023-03-18T05:35:48;6.22;;;1.83;;
72797;SDS011;61084;55.816;37.036;2023-03-18T05:38:21;6.45;;;1.67;;
72797;SDS011;61084;55.816;37.036;2023-03-18T05:40:52;3.17;;;1.52;;
72797;SDS011;61084;55.816;37.036;2023-03-18T05:43:24;5.20;;;2.00;;
72797;SDS011;61084;55.816;37.036;2023-03-18T05:46:04;7.20;;;2.15;;
72797;SDS011;61084;55.816;37.036;2023-03-18T05:48:53;7.70;;;1.70;;
72797;SDS011;61084;55.816;37.036;2023-03-18T05:51:28;3.92;;;1.50;;
72797;SDS011;61084;55.816;37.036;2023-03-18T05:53:58;6.47;;;2.30;;
72797;SDS011;61084;55.816;37.036;2023-03-18T05:56:32;8.02;;;1.95;;
72797;SDS011;61084;55.816;37.036;2023-03-18T05:59:02;4.53;;;1.70;;
72797;SDS011;61084;55.816;37.036;2023-03-18T06:01:55;4.80;;;2.00;;
72797;SDS011;61084;55.816;37.036;2023-03-18T06:04:22;4.03;;;1.60;;
72797;SDS011;61084;55.816;37.036;2023-03-18T06:06:51;4.53;;;1.90;;
72797;SDS011;61084;55.816;37.036;2023-03-18T06:09:24;4.57;;;1.48;;
72797;SDS011;61084;55.816;37.036;2023-03-18T06:11:51;5.43;;;1.73;;
72797;SDS011;61084;55.816;37.036;2023-03-18T06:14:17;5.45;;;1.73;;
72797;SDS011;61084;55.816;37.036;2023-03-18T06:16:44;5.20;;;1.63;;
72797;SDS011;61084;55.816;37.036;2023-03-18T06:19:11;4.60;;;1.55;;
72797;SDS011;61084;55.816;37.036;2023-03-18T06:21:42;4.40;;;1.80;;
72797;SDS011;61084;55.816;37.036;2023-03-18T06:24:08;7.00;;;1.85;;
72797;SDS011;61084;55.816;37.036;2023-03-18T06:26:37;8.75;;;2.35;;
72797;SDS011;61084;55.816;37.036;2023-03-18T06:29:04;7.47;;;1.95;;
72797;SDS011;61084;55.816;37.036;2023-03-18T06:31:33;5.18;;;2.03;;
72797;SDS011;61084;55.816;37.036;2023-03-18T06:34:02;12.35;;;2.58;;
72797;SDS011;61084;55.816;37.036;2023-03-18T06:36:36;10.07;;;3.17;;
72797;SDS011;61084;55.816;37.036;2023-03-18T06:39:11;8.55;;;2.80;;
72797;SDS011;61084;55.816;37.036;2023-03-18T06:41:39;15.10;;;3.53;;
72797;SDS011;61084;55.816;37.036;2023-03-18T06:44:23;12.38;;;3.47;;
72797;SDS011;61084;55.816;37.036;2023-03-18T06:46:52;12.35;;;3.60;;
72797;SDS011;61084;55.816;37.036;2023-03-18T06:49:18;7.97;;;2.90;;
72797;SDS011;61084;55.816;37.036;2023-03-18T06:51:50;9.63;;;2.30;;
72797;SDS011;61084;55.816;37.036;2023-03-18T06:54:16;9.02;;;2.28;;
72797;SDS011;61084;55.816;37.036;2023-03-18T06:56:43;8.43;;;2.60;;
72797;SDS011;61084;55.816;37.036;2023-03-18T06:59:18;9.35;;;3.13;;
72797;SDS011;61084;55.816;37.036;2023-03-18T07:01:46;17.58;;;3.53;;
72797;SDS011;61084;55.816;37.036;2023-03-18T07:04:16;5.47;;;1.80;;
72797;SDS011;61084;55.816;37.036;2023-03-18T07:06:43;3.70;;;1.98;;
72797;SDS011;61084;55.816;37.036;2023-03-18T07:09:09;6.32;;;1.50;;
72797;SDS011;61084;55.816;37.036;2023-03-18T07:11:38;4.88;;;1.73;;
72797;SDS011;61084;55.816;37.036;2023-03-18T07:14:09;9.07;;;1.50;;
72797;SDS011;61084;55.816;37.036;2023-03-18T07:16:40;3.30;;;1.65;;
72797;SDS011;61084;55.816;37.036;2023-03-18T07:19:06;4.43;;;1.20;;
72797;SDS011;61084;55.816;37.036;2023-03-18T07:21:32;5.82;;;1.50;;
72797;SDS011;61084;55.816;37.036;2023-03-18T07:24:01;2.47;;;1.35;;
72797;SDS011;61084;55.816;37.036;2023-03-18T07:26:28;5.53;;;1.48;;
72797;SDS011;61084;55.816;37.036;2023-03-18T07:28:57;5.72;;;1.45;;
72797;SDS011;61084;55.816;37.036;2023-03-18T07:31:23;6.88;;;1.67;;
72797;SDS011;61084;55.816;37.036;2023-03-18T07:33:50;4.60;;;1.50;;
72797;SDS011;61084;55.816;37.036;2023-03-18T07:36:18;5.45;;;1.90;;
72797;SDS011;61084;55.816;37.036;2023-03-18T07:38:45;3.90;;;1.40;;
72797;SDS011;61084;55.816;37.036;2023-03-18T07:41:10;5.95;;;1.38;;
72797;SDS011;61084;55.816;37.036;2023-03-18T07:43:36;3.65;;;1.50;;
72797;SDS011;61084;55.816;37.036;2023-03-18T07:46:04;7.20;;;1.25;;
72797;SDS011;61084;55.816;37.036;2023-03-18T07:48:31;5.60;;;1.42;;
72797;SDS011;61084;55.816;37.036;2023-03-18T07:50:59;6.65;;;1.30;;
72797;SDS011;61084;55.816;37.036;2023-03-18T07:53:25;4.45;;;1.55;;
72797;SDS011;61084;55.816;37.036;2023-03-18T07:55:52;3.13;;;1.20;;
72797;SDS011;61084;55.816;37.036;2023-03-18T07:58:19;3.58;;;1.23;;
72797;SDS011;61084;55.816;37.036;2023-03-18T08:00:45;10.43;;;1.80;;
72797;SDS011;61084;55.816;37.036;2023-03-18T08:03:11;5.57;;;1.70;;
72797;SDS011;61084;55.816;37.036;2023-03-18T08:05:38;4.47;;;1.25;;
72797;SDS011;61084;55.816;37.036;2023-03-18T08:08:05;2.50;;;1.23;;
72797;SDS011;61084;55.816;37.036;2023-03-18T08:10:31;3.78;;;1.67;;
72797;SDS011;61084;55.816;37.036;2023-03-18T08:12:57;4.95;;;1.58;;
72797;SDS011;61084;55.816;37.036;2023-03-18T08:15:23;6.13;;;1.38;;
72797;SDS011;61084;55.816;37.036;2023-03-18T08:17:51;4.75;;;0.73;;
72797;SDS011;61084;55.816;37.036;2023-03-18T08:20:18;2.05;;;1.10;;
72797;SDS011;61084;55.816;37.036;2023-03-18T08:22:44;3.22;;;1.20;;
72797;SDS011;61084;55.816;37.036;2023-03-18T08:25:10;5.82;;;1.33;;
72797;SDS011;61084;55.816;37.036;2023-03-18T08:27:41;4.18;;;1.60;;
72797;SDS011;61084;55.816;37.036;2023-03-18T08:30:08;3.60;;;1.20;;
72797;SDS011;61084;55.816;37.036;2023-03-18T08:32:34;4.32;;;1.45;;
72797;SDS011;61084;55.816;37.036;2023-03-18T08:37:29;1.27;;;0.60;;
72797;SDS011;61084;55.816;37.036;2023-03-18T08:39:55;3.47;;;1.67;;
72797;SDS011;61084;55.816;37.036;2023-03-18T08:42:21;2.88;;;1.10;;
72797;SDS011;61084;55.816;37.036;2023-03-18T08:44:47;11.25;;;1.77;;
72797;SDS011;61084;55.816;37.036;2023-03-18T08:47:13;2.33;;;0.90;;
72797;SDS011;61084;55.816;37.036;2023-03-18T08:49:39;5.95;;;2.05;;
72797;SDS011;61084;55.816;37.036;2023-03-18T08:52:08;2.35;;;1.20;;
72797;SDS011;61084;55.816;37.036;2023-03-18T08:54:34;5.50;;;1.60;;
72797;SDS011;61084;55.816;37.036;2023-03-18T08:57:04;5.65;;;1.90;;
72797;SDS011;61084;55.816;37.036;2023-03-18T08:59:46;11.45;;;2.20;;
72797;SDS011;61084;55.816;37.036;2023-03-18T09:02:12;4.55;;;1.63;;
72797;SDS011;61084;55.816;37.036;2023-03-18T09:04:43;3.03;;;1.30;;
72797;SDS011;61084;55.816;37.036;2023-03-18T09:07:09;7.07;;;1.92;;
72797;SDS011;61084;55.816;37.036;2023-03-18T09:09:42;5.68;;;1.77;;
72797;SDS011;61084;55.816;37.036;2023-03-18T09:12:10;7.00;;;2.67;;
72797;SDS011;61084;55.816;37.036;2023-03-18T09:14:38;6.95;;;2.40;;
72797;SDS011;61084;55.816;37.036;2023-03-18T09:17:06;8.23;;;2.10;;
72797;SDS011;61084;55.816;37.036;2023-03-18T09:19:51;3.83;;;1.50;;
72797;SDS011;61084;55.816;37.036;2023-03-18T09:22:17;2.35;;;1.10;;
72797;SDS011;61084;55.816;37.036;2023-03-18T09:24:43;4.63;;;1.73;;
72797;SDS011;61084;55.816;37.036;2023-03-18T09:27:09;12.05;;;4.80;;
72797;SDS011;61084;55.816;37.036;2023-03-18T09:29:35;3.20;;;1.40;;
72797;SDS011;61084;55.816;37.036;2023-03-18T09:32:01;7.00;;;1.95;;
72797;SDS011;61084;55.816;37.036;2023-03-18T09:34:27;4.57;;;1.50;;
72797;SDS011;61084;55.816;37.036;2023-03-18T09:36:53;5.50;;;1.67;;
72797;SDS011;61084;55.816;37.036;2023-03-18T09:39:19;13.13;;;2.47;;
72797;SDS011;61084;55.816;37.036;2023-03-18T09:44:21;4.57;;;1.42;;
72797;SDS011;61084;55.816;37.036;2023-03-18T09:49:40;8.48;;;2.40;;
72797;SDS011;61084;55.816;37.036;2023-03-18T09:52:25;5.53;;;1.75;;
72797;SDS011;61084;55.816;37.036;2023-03-18T09:57:50;10.75;;;2.45;;
72797;SDS011;61084;55.816;37.036;2023-03-18T10:00:26;6.53;;;1.70;;
72797;SDS011;61084;55.816;37.036;2023-03-18T10:03:04;4.85;;;1.55;;
72797;SDS011;61084;55.816;37.036;2023-03-18T10:11:17;3.40;;;1.40;;
72797;SDS011;61084;55.816;37.036;2023-03-18T10:14:13;3.20;;;1.55;;
72797;SDS011;61084;55.816;37.036;2023-03-18T10:16:48;3.35;;;1.40;;
72797;SDS011;61084;55.816;37.036;2023-03-18T10:19:22;5.97;;;1.70;;
72797;SDS011;61084;55.816;37.036;2023-03-18T10:24:49;4.65;;;1.35;;
72797;SDS011;61084;55.816;37.036;2023-03-18T10:38:16;3.83;;;1.02;;
72797;SDS011;61084;55.816;37.036;2023-03-18T10:40:50;3.25;;;1.48;;
72797;SDS011;61084;55.816;37.036;2023-03-18T10:43:18;5.10;;;1.10;;
72797;SDS011;61084;55.816;37.036;2023-03-18T10:45:51;5.45;;;1.58;;
72797;SDS011;61084;55.816;37.036;2023-03-18T10:48:31;6.10;;;1.30;;
72797;SDS011;61084;55.816;37.036;2023-03-18T10:56:42;4.25;;;1.25;;
72797;SDS011;61084;55.816;37.036;2023-03-18T10:59:12;3.28;;;1.40;;
72797;SDS011;61084;55.816;37.036;2023-03-18T11:01:41;3.10;;;1.20;;
72797;SDS011;61084;55.816;37.036;2023-03-18T11:04:11;3.90;;;1.15;;
72797;SDS011;61084;55.816;37.036;2023-03-18T11:06:44;5.97;;;1.65;;
72797;SDS011;61084;55.816;37.036;2023-03-18T11:09:18;3.33;;;1.50;;
72797;SDS011;61084;55.816;37.036;2023-03-18T11:11:48;3.97;;;1.40;;
72797;SDS011;61084;55.816;37.036;2023-03-18T11:14:27;3.53;;;1.52;;
72797;SDS011;61084;55.816;37.036;2023-03-18T11:16:55;4.22;;;1.20;;
72797;SDS011;61084;55.816;37.036;2023-03-18T11:19:30;3.10;;;1.33;;
72797;SDS011;61084;55.816;37.036;2023-03-18T11:22:20;9.93;;;0.95;;
72797;SDS011;61084;55.816;37.036;2023-03-18T11:27:47;2.63;;;1.27;;
72797;SDS011;61084;55.816;37.036;2023-03-18T11:32:56;2.60;;;1.42;;
72797;SDS011;61084;55.816;37.036;2023-03-18T11:38:29;3.03;;;1.42;;
72797;SDS011;61084;55.816;37.036;2023-03-18T11:41:06;8.43;;;1.42;;
72797;SDS011;61084;55.816;37.036;2023-03-18T11:46:21;3.80;;;1.10;;
72797;SDS011;61084;55.816;37.036;2023-03-18T11:49:04;2.80;;;1.13;;
72797;SDS011;61084;55.816;37.036;2023-03-18T11:51:37;3.35;;;1.13;;
72797;SDS011;61084;55.816;37.036;2023-03-18T11:59:44;6.35;;;1.33;;
72797;SDS011;61084;55.816;37.036;2023-03-18T12:10:50;5.00;;;1.48;;
72797;SDS011;61084;55.816;37.036;2023-03-18T12:14:12;3.47;;;1.02;;
72797;SDS011;61084;55.816;37.036;2023-03-18T12:19:39;4.65;;;1.20;;
72797;SDS011;61084;55.816;37.036;2023-03-18T12:34:02;2.33;;;1.30;;
72797;SDS011;61084;55.816;37.036;2023-03-18T12:39:51;4.63;;;0.98;;
72797;SDS011;61084;55.816;37.036;2023-03-18T12:42:41;2.60;;;1.27;;
72797;SDS011;61084;55.816;37.036;2023-03-18T12:45:29;3.95;;;1.80;;
72797;SDS011;61084;55.816;37.036;2023-03-18T12:51:18;3.60;;;1.40;;
72797;SDS011;61084;55.816;37.036;2023-03-18T12:53:51;5.35;;;2.00;;
72797;SDS011;61084;55.816;37.036;2023-03-18T12:56:24;5.60;;;1.20;;
72797;SDS011;61084;55.816;37.036;2023-03-18T12:58:56;3.47;;;1.20;;
72797;SDS011;61084;55.816;37.036;2023-03-18T13:01:33;6.20;;;1.50;;
72797;SDS011;61084;55.816;37.036;2023-03-18T13:04:29;4.50;;;1.60;;
72797;SDS011;61084;55.816;37.036;2023-03-18T13:12:29;2.13;;;1.05;;
72797;SDS011;61084;55.816;37.036;2023-03-18T13:15:13;2.58;;;1.50;;
72797;SDS011;61084;55.816;37.036;2023-03-18T13:18:00;5.38;;;1.85;;
72797;SDS011;61084;55.816;37.036;2023-03-18T13:20:37;2.30;;;1.20;;
72797;SDS011;61084;55.816;37.036;2023-03-18T13:44:42;5.68;;;1.65;;
72797;SDS011;61084;55.816;37.036;2023-03-18T13:47:15;6.18;;;1.75;;
72797;SDS011;61084;55.816;37.036;2023-03-18T13:50:00;4.32;;;1.65;;
72797;SDS011;61084;55.816;37.036;2023-03-18T13:52:55;6.60;;;1.77;;
72797;SDS011;61084;55.816;37.036;2023-03-18T13:55:33;6.60;;;1.75;;
72797;SDS011;61084;55.816;37.036;2023-03-18T13:58:27;3.88;;;2.00;;
72797;SDS011;61084;55.816;37.036;2023-03-18T14:06:21;6.78;;;1.75;;
72797;SDS011;61084;55.816;37.036;2023-03-18T14:12:02;4.05;;;1.75;;
72797;SDS011;61084;55.816;37.036;2023-03-18T14:17:34;7.57;;;1.42;;
72797;SDS011;61084;55.816;37.036;2023-03-18T14:28:46;4.18;;;1.50;;
72797;SDS011;61084;55.816;37.036;2023-03-18T14:39:34;3.45;;;1.10;;
72797;SDS011;61084;55.816;37.036;2023-03-18T14:48:08;6.40;;;1.05;;
72797;SDS011;61084;55.816;37.036;2023-03-18T14:50:50;4.70;;;1.02;;
72797;SDS011;61084;55.816;37.036;2023-03-18T14:56:15;2.38;;;0.90;;
72797;SDS011;61084;55.816;37.036;2023-03-18T14:58:51;3.83;;;1.00;;
72797;SDS011;61084;55.816;37.036;2023-03-18T15:01:23;1.65;;;0.80;;
72797;SDS011;61084;55.816;37.036;2023-03-18T15:03:58;3.70;;;1.00;;
72797;SDS011;61084;55.816;37.036;2023-03-18T15:06:25;1.25;;;0.65;;
72797;SDS011;61084;55.816;37.036;2023-03-18T15:09:03;7.97;;;1.90;;
72797;SDS011;61084;55.816;37.036;2023-03-18T15:11:37;8.82;;;3.22;;
72797;SDS011;61084;55.816;37.036;2023-03-18T15:14:17;8.20;;;1.30;;
72797;SDS011;61084;55.816;37.036;2023-03-18T15:16:54;3.53;;;1.60;;
72797;SDS011;61084;55.816;37.036;2023-03-18T15:19:22;4.35;;;1.70;;
72797;SDS011;61084;55.816;37.036;2023-03-18T15:21:48;3.08;;;1.80;;
72797;SDS011;61084;55.816;37.036;2023-03-18T15:24:19;3.00;;;1.60;;
72797;SDS011;61084;55.816;37.036;2023-03-18T15:26:56;4.97;;;2.10;;
72797;SDS011;61084;55.816;37.036;2023-03-18T15:29:32;4.80;;;2.00;;
72797;SDS011;61084;55.816;37.036;2023-03-18T15:37:39;3.17;;;1.33;;
72797;SDS011;61084;55.816;37.036;2023-03-18T15:42:46;4.45;;;1.10;;
72797;SDS011;61084;55.816;37.036;2023-03-18T15:45:15;2.47;;;1.30;;
72797;SDS011;61084;55.816;37.036;2023-03-18T15:47:45;5.28;;;1.40;;
72797;SDS011;61084;55.816;37.036;2023-03-18T15:55:29;5.80;;;1.38;;
72797;SDS011;61084;55.816;37.036;2023-03-18T15:58:03;4.60;;;1.35;;
72797;SDS011;61084;55.816;37.036;2023-03-18T16:00:32;3.30;;;1.40;;
72797;SDS011;61084;55.816;37.036;2023-03-18T16:02:59;5.10;;;1.50;;
72797;SDS011;61084;55.816;37.036;2023-03-18T16:05:25;8.20;;;1.65;;
72797;SDS011;61084;55.816;37.036;2023-03-18T16:07:58;3.35;;;1.60;;
72797;SDS011;61084;55.816;37.036;2023-03-18T16:10:30;8.93;;;2.95;;
72797;SDS011;61084;55.816;37.036;2023-03-18T16:12:58;20.52;;;5.93;;
72797;SDS011;61084;55.816;37.036;2023-03-18T16:15:26;7.93;;;2.88;;
72797;SDS011;61084;55.816;37.036;2023-03-18T16:17:54;5.80;;;1.80;;
72797;SDS011;61084;55.816;37.036;2023-03-18T16:20:21;7.03;;;1.50;;
72797;SDS011;61084;55.816;37.036;2023-03-18T16:22:49;5.18;;;1.58;;
72797;SDS011;61084;55.816;37.036;2023-03-18T16:25:16;6.20;;;2.10;;
72797;SDS011;61084;55.816;37.036;2023-03-18T16:27:46;8.52;;;2.63;;
72797;SDS011;61084;55.816;37.036;2023-03-18T16:30:21;17.10;;;5.93;;
72797;SDS011;61084;55.816;37.036;2023-03-18T16:32:49;23.52;;;7.72;;
72797;SDS011;61084;55.816;37.036;2023-03-18T16:35:16;18.70;;;7.13;;
72797;SDS011;61084;55.816;37.036;2023-03-18T16:37:44;13.65;;;5.82;;
72797;SDS011;61084;55.816;37.036;2023-03-18T16:40:19;17.80;;;6.10;;
72797;SDS011;61084;55.816;37.036;2023-03-18T16:42:55;12.70;;;4.57;;
72797;SDS011;61084;55.816;37.036;2023-03-18T16:45:24;17.88;;;5.28;;
72797;SDS011;61084;55.816;37.036;2023-03-18T16:48:04;16.27;;;4.93;;
72797;SDS011;61084;55.816;37.036;2023-03-18T16:50:35;13.35;;;4.82;;
72797;SDS011;61084;55.816;37.036;2023-03-18T16:58:34;25.30;;;9.15;;
72797;SDS011;61084;55.816;37.036;2023-03-18T17:01:02;20.90;;;8.82;;
72797;SDS011;61084;55.816;37.036;2023-03-18T17:03:32;13.90;;;6.93;;
72797;SDS011;61084;55.816;37.036;2023-03-18T17:05:58;11.73;;;5.82;;
72797;SDS011;61084;55.816;37.036;2023-03-18T17:08:24;16.90;;;6.38;;
72797;SDS011;61084;55.816;37.036;2023-03-18T17:10:51;11.82;;;6.22;;
72797;SDS011;61084;55.816;37.036;2023-03-18T17:13:23;17.42;;;5.68;;
72797;SDS011;61084;55.816;37.036;2023-03-18T17:15:54;11.65;;;4.50;;
72797;SDS011;61084;55.816;37.036;2023-03-18T17:18:21;10.15;;;3.97;;
72797;SDS011;61084;55.816;37.036;2023-03-18T17:20:49;14.48;;;5.50;;
72797;SDS011;61084;55.816;37.036;2023-03-18T17:23:20;12.65;;;4.95;;
72797;SDS011;61084;55.816;37.036;2023-03-18T17:25:49;17.35;;;6.03;;
72797;SDS011;61084;55.816;37.036;2023-03-18T17:28:21;43.45;;;19.25;;
72797;SDS011;61084;55.816;37.036;2023-03-18T17:30:52;26.55;;;12.95;;
72797;SDS011;61084;55.816;37.036;2023-03-18T17:33:26;15.85;;;6.53;;
72797;SDS011;61084;55.816;37.036;2023-03-18T17:35:55;15.73;;;5.43;;
72797;SDS011;61084;55.816;37.036;2023-03-18T17:38:21;13.65;;;4.90;;
72797;SDS011;61084;55.816;37.036;2023-03-18T17:40:48;12.95;;;4.43;;
72797;SDS011;61084;55.816;37.036;2023-03-18T17:46:00;13.93;;;4.38;;
72797;SDS011;61084;55.816;37.036;2023-03-18T17:49:04;10.25;;;3.80;;
72797;SDS011;61084;55.816;37.036;2023-03-18T17:51:34;23.48;;;4.32;;
72797;SDS011;61084;55.816;37.036;2023-03-18T17:54:08;9.75;;;3.75;;
72797;SDS011;61084;55.816;37.036;2023-03-18T17:56:41;11.60;;;3.47;;